Time;durP1;ratioP1;P1;durP2;ratioP2;P2;SDS_P1;SDS_P2;PMS_P1;PMS_P2;Temp;Humidity;BMP_temperature;BMP_pressure;BME280_temperature;BME280_humidity;BME280_pressure;Samples;Min_cycle;Max_cycle;Signal;HPM_P1;HPM_P2
2022/06/18 00:01:54;;;;;;;5.70;2.45;;;;;;;19.48;100.00;100785.78;5074675;28;20418;-69
2022/06/18 00:04:21;;;;;;;3.95;2.10;;;;;;;19.82;100.00;100831.88;5085701;28;20028;-70
2022/06/18 00:06:53;;;;;;;10.70;2.22;;;;;;;19.67;100.00;100795.81;5071630;28;20028;-70
2022/06/18 00:09:22;;;;;;;5.00;2.10;;;;;;;19.79;100.00;100817.00;5084013;28;20073;-70
2022/06/18 00:14:49;;;;;;;4.80;1.83;;;;;;;19.72;100.00;100820.28;5011729;28;20087;-70
2022/06/18 00:17:16;;;;;;;4.88;2.53;;;;;;;19.76;100.00;100827.06;5066073;28;20071;-69
2022/06/18 00:19:45;;;;;;;4.18;2.50;;;;;;;19.73;100.00;100821.97;5078957;28;20029;-70
2022/06/18 00:22:15;;;;;;;4.10;1.92;;;;;;;19.62;100.00;100820.19;5091890;28;20505;-68
2022/06/18 00:24:41;;;;;;;4.68;2.20;;;;;;;19.66;100.00;100832.28;5092286;28;20024;-69
2022/06/18 00:27:12;;;;;;;5.20;2.10;;;;;;;19.61;100.00;100825.63;5080222;28;20433;-70
2022/06/18 00:29:38;;;;;;;4.15;2.20;;;;;;;19.53;100.00;100831.59;5059630;28;20021;-70
2022/06/18 00:32:04;;;;;;;3.28;2.03;;;;;;;19.48;100.00;100827.59;5081055;28;20137;-70
2022/06/18 00:34:29;;;;;;;3.20;1.70;;;;;;;19.29;100.00;100807.72;5068606;28;20037;-69
2022/06/18 00:36:54;;;;;;;4.38;1.90;;;;;;;19.29;100.00;100826.38;5082397;28;20464;-69
2022/06/18 00:39:20;;;;;;;4.57;2.22;;;;;;;19.15;100.00;100815.97;5071139;28;20021;-69
2022/06/18 00:41:47;;;;;;;3.92;2.00;;;;;;;19.21;100.00;100842.13;5084959;28;20024;-69
2022/06/18 00:44:32;;;;;;;3.90;2.15;;;;;;;19.11;100.00;100825.16;5051934;28;20551;-69
2022/06/18 00:47:28;;;;;;;4.47;2.50;;;;;;;19.15;100.00;100839.94;5088359;28;20177;-69
2022/06/18 00:50:12;;;;;;;3.72;2.20;;;;;;;19.03;100.00;100822.22;5075487;28;20028;-69
2022/06/18 00:52:54;;;;;;;4.25;1.83;;;;;;;19.03;100.00;100824.91;5070455;28;20383;-69
2022/06/18 00:55:25;;;;;;;5.80;1.90;;;;;;;19.07;100.00;100837.00;5078470;28;20105;-69
2022/06/18 00:58:05;;;;;;;3.97;2.05;;;;;;;19.06;100.00;100832.66;5069963;28;20064;-69
2022/06/18 01:00:38;;;;;;;5.05;1.95;;;;;;;19.05;100.00;100825.66;5070835;28;20023;-69
2022/06/18 01:03:05;;;;;;;6.80;2.45;;;;;;;18.89;100.00;100798.53;5081074;28;20103;-69
2022/06/18 01:05:38;;;;;;;4.28;1.90;;;;;;;18.96;100.00;100813.03;5081946;28;20032;-69
2022/06/18 01:08:10;;;;;;;7.40;1.80;;;;;;;18.98;100.00;100819.09;5061000;28;20036;-69
2022/06/18 01:10:38;;;;;;;6.25;2.17;;;;;;;18.83;100.00;100804.31;5084932;28;20754;-69
2022/06/18 01:13:07;;;;;;;5.95;2.53;;;;;;;18.86;100.00;100804.06;5062665;28;20029;-69
2022/06/18 01:15:34;;;;;;;5.18;2.70;;;;;;;18.88;100.00;100808.31;5077282;28;20407;-68
2022/06/18 01:18:04;;;;;;;4.68;2.20;;;;;;;18.91;100.00;100807.22;5083829;28;20024;-69
2022/06/18 01:20:32;;;;;;;4.25;2.45;;;;;;;18.86;100.00;100798.72;5082473;28;20363;-69
2022/06/18 01:23:18;;;;;;;6.25;2.40;;;;;;;18.94;100.00;100808.78;5077114;28;20099;-69
2022/06/18 01:25:43;;;;;;;4.38;2.15;;;;;;;18.94;100.00;100812.31;5074252;28;20024;-69
2022/06/18 01:28:09;;;;;;;4.75;2.35;;;;;;;18.87;100.00;100795.97;5063561;28;20497;-69
2022/06/18 01:30:39;;;;;;;6.57;2.50;;;;;;;18.98;100.00;100804.94;5087498;28;20467;-69
2022/06/18 01:33:07;;;;;;;4.20;2.20;;;;;;;18.89;100.00;100782.53;5074278;28;20032;-69
2022/06/18 01:35:35;;;;;;;3.90;1.85;;;;;;;18.96;100.00;100789.06;5042737;28;20040;-69
2022/06/18 01:38:01;;;;;;;6.75;2.58;;;;;;;19.07;100.00;100789.06;5078384;28;20035;-69
2022/06/18 01:40:36;;;;;;;3.53;1.63;;;;;;;19.22;100.00;100795.00;5091945;28;20111;-69
2022/06/18 01:43:03;;;;;;;5.32;2.33;;;;;;;19.27;100.00;100784.81;5082057;28;20372;-68
2022/06/18 01:45:32;;;;;;;4.93;2.03;;;;;;;19.33;100.00;100777.16;5087844;28;20025;-69
2022/06/18 01:48:01;;;;;;;3.42;2.08;;;;;;;19.20;100.00;100756.94;5084327;28;20044;-68
2022/06/18 01:51:12;;;;;;;3.05;1.85;;;;;;;19.37;100.00;100777.75;5079410;28;20028;-69
2022/06/18 01:53:43;;;;;;;4.60;2.10;;;;;;;19.34;100.00;100778.88;5047232;28;20094;-69
2022/06/18 01:56:17;;;;;;;4.45;1.83;;;;;;;19.23;100.00;100752.22;5076227;28;20034;-69
2022/06/18 01:58:48;;;;;;;6.43;2.15;;;;;;;19.30;100.00;100769.41;5061416;28;20032;-69
2022/06/18 02:01:24;;;;;;;8.27;2.35;;;;;;;19.35;100.00;100777.91;5085908;28;20027;-69
2022/06/18 02:03:51;;;;;;;5.15;1.65;;;;;;;19.30;100.00;100772.09;5074837;28;20035;-69
2022/06/18 02:06:17;;;;;;;9.32;2.13;;;;;;;19.36;100.00;100776.91;5085148;28;20073;-69
2022/06/18 02:08:43;;;;;;;5.07;2.10;;;;;;;19.29;100.00;100764.22;5087345;28;20036;-69
2022/06/18 02:11:11;;;;;;;3.53;1.70;;;;;;;19.24;100.00;100766.41;5088540;28;20025;-69
2022/06/18 02:13:39;;;;;;;4.03;1.77;;;;;;;19.25;100.00;100776.94;5073365;28;20036;-69
2022/06/18 02:16:09;;;;;;;2.90;1.73;;;;;;;18.89;100.00;100723.94;5072125;28;20032;-69
2022/06/18 02:18:35;;;;;;;3.78;2.13;;;;;;;19.14;100.00;100771.63;5055370;28;20068;-69
2022/06/18 02:21:01;;;;;;;4.25;2.28;;;;;;;19.05;100.00;100769.69;5091241;28;20117;-70
2022/06/18 02:23:26;;;;;;;3.22;1.90;;;;;;;19.04;100.00;100770.66;5093912;28;20039;-69
2022/06/18 02:25:52;;;;;;;8.50;2.42;;;;;;;19.00;100.00;100761.22;5082796;28;20525;-69
2022/06/18 02:28:29;;;;;;;4.18;1.80;;;;;;;18.95;100.00;100763.41;5072737;28;20033;-70
2022/06/18 02:30:57;;;;;;;3.47;1.73;;;;;;;19.00;100.00;100769.19;5054754;28;20079;-70
2022/06/18 02:33:37;;;;;;;5.05;1.88;;;;;;;18.97;100.00;100777.44;5068050;28;20032;-69
2022/06/18 02:36:23;;;;;;;3.60;1.83;;;;;;;18.94;100.00;100767.03;5069109;28;20474;-69
2022/06/18 02:38:53;;;;;;;4.50;2.00;;;;;;;18.93;100.00;100767.13;5057889;28;20449;-69
2022/06/18 02:41:18;;;;;;;4.75;1.60;;;;;;;18.93;100.00;100768.00;5073051;28;20020;-69
2022/06/18 02:43:44;;;;;;;2.53;1.65;;;;;;;18.86;100.00;100767.63;5070883;28;20027;-69
2022/06/18 02:46:10;;;;;;;3.35;1.77;;;;;;;18.81;100.00;100763.63;5065067;28;20111;-69
2022/06/18 02:48:40;;;;;;;3.05;1.63;;;;;;;18.90;100.00;100781.56;5060646;28;20032;-69
2022/06/18 02:51:05;;;;;;;9.15;2.28;;;;;;;18.84;100.00;100769.56;5068428;28;20036;-69
2022/06/18 02:53:32;;;;;;;5.00;2.17;;;;;;;18.78;100.00;100762.06;5088534;28;20542;-69
2022/06/18 02:56:00;;;;;;;6.70;2.55;;;;;;;18.83;100.00;100781.19;5082311;28;20024;-69
2022/06/18 02:58:29;;;;;;;4.03;2.30;;;;;;;18.75;100.00;100764.13;5090586;28;20552;-70
2022/06/18 03:01:00;;;;;;;3.20;1.73;;;;;;;18.74;100.00;100767.75;5073368;28;20016;-70
2022/06/18 03:03:29;;;;;;;4.85;2.30;;;;;;;18.76;100.00;100771.97;5073075;28;20028;-70
2022/06/18 03:05:55;;;;;;;3.75;1.83;;;;;;;18.69;100.00;100757.44;5091147;28;20373;-70
2022/06/18 03:08:21;;;;;;;8.35;2.05;;;;;;;18.65;100.00;100764.00;5078319;28;20032;-70
2022/06/18 03:13:31;;;;;;;4.87;1.97;;;;;;;18.48;100.00;100739.63;5082713;28;20098;-69
2022/06/18 03:15:56;;;;;;;4.38;1.83;;;;;;;18.48;100.00;100750.25;5071452;28;20033;-69
2022/06/18 03:18:26;;;;;;;5.38;2.80;;;;;;;18.65;100.00;100776.47;5080446;28;20046;-69
2022/06/18 03:20:54;;;;;;;5.78;2.38;;;;;;;18.65;100.00;100782.63;5074779;28;20058;-68
2022/06/18 03:23:21;;;;;;;3.53;2.15;;;;;;;18.37;100.00;100741.31;5085029;28;20029;-68
2022/06/18 03:25:47;;;;;;;4.65;2.15;;;;;;;18.63;100.00;100787.22;5084295;28;20024;-68
2022/06/18 03:28:14;;;;;;;4.25;2.15;;;;;;;18.52;100.00;100773.88;5058088;28;20077;-68
2022/06/18 03:30:40;;;;;;;5.05;2.20;;;;;;;18.64;100.00;100785.41;5080996;28;20024;-68
2022/06/18 03:33:06;;;;;;;4.95;2.60;;;;;;;18.53;100.00;100770.25;5092227;28;20028;-69
2022/06/18 03:35:31;;;;;;;3.75;2.00;;;;;;;18.54;100.00;100787.09;5079578;28;20051;-69
2022/06/18 03:37:56;;;;;;;6.05;2.03;;;;;;;18.53;100.00;100788.03;5092571;28;20102;-69
2022/06/18 03:40:22;;;;;;;6.90;2.40;;;;;;;18.49;100.00;100799.84;5083511;28;20133;-68
2022/06/18 03:42:47;;;;;;;3.97;2.53;;;;;;;18.44;100.00;100796.69;5075756;28;20054;-68
2022/06/18 03:45:13;;;;;;;5.57;2.58;;;;;;;18.43;100.00;100795.84;5089507;28;20036;-69
2022/06/18 03:47:38;;;;;;;5.05;2.35;;;;;;;18.39;100.00;100805.03;5080545;28;20036;-69
2022/06/18 03:50:05;;;;;;;5.20;2.70;;;;;;;18.35;100.00;100792.94;5069762;28;20123;-69
2022/06/18 03:52:30;;;;;;;5.50;2.65;;;;;;;18.31;100.00;100787.00;5081696;28;20032;-69
2022/06/18 03:54:55;;;;;;;3.47;2.45;;;;;;;18.15;100.00;100764.34;5074100;28;20029;-69
2022/06/18 03:57:21;;;;;;;5.05;2.55;;;;;;;18.20;100.00;100778.97;5072626;28;20028;-69
2022/06/18 03:59:46;;;;;;;5.45;2.80;;;;;;;18.26;100.00;100799.78;5063288;28;20028;-69
2022/06/18 04:02:13;;;;;;;3.40;2.05;;;;;;;18.21;100.00;100786.00;5064757;28;20032;-69
2022/06/18 04:04:39;;;;;;;4.70;2.22;;;;;;;18.26;100.00;100794.47;5081776;28;20529;-69
2022/06/18 04:07:05;;;;;;;3.58;2.22;;;;;;;18.15;100.00;100775.00;5085249;28;20068;-69
2022/06/18 04:09:31;;;;;;;3.30;2.20;;;;;;;18.22;100.00;100781.50;5075368;28;20028;-69
2022/06/18 04:11:56;;;;;;;5.32;2.33;;;;;;;18.17;100.00;100773.91;5060271;28;20036;-68
2022/06/18 04:14:22;;;;;;;3.75;2.53;;;;;;;18.20;100.00;100773.66;5061409;28;20064;-69
2022/06/18 04:16:47;;;;;;;3.50;2.08;;;;;;;18.26;100.00;100789.16;5073115;28;20565;-69
2022/06/18 04:19:12;;;;;;;5.20;2.83;;;;;;;18.20;100.00;100776.31;5081098;28;20083;-69
2022/06/18 04:21:38;;;;;;;4.03;2.30;;;;;;;18.23;100.00;100786.72;5095585;28;20065;-68
2022/06/18 04:24:03;;;;;;;4.88;2.60;;;;;;;18.25;100.00;100787.44;5081506;28;20060;-68
2022/06/18 04:26:32;;;;;;;4.13;2.42;;;;;;;18.25;100.00;100787.44;5093908;28;20047;-69
2022/06/18 04:28:57;;;;;;;5.70;2.92;;;;;;;18.25;100.00;100783.97;5084667;28;20031;-69
2022/06/18 04:31:23;;;;;;;7.50;3.30;;;;;;;18.27;100.00;100785.53;5058677;28;20084;-69
2022/06/18 04:33:48;;;;;;;5.22;2.88;;;;;;;18.27;100.00;100774.91;5090467;28;20032;-68
2022/06/18 04:36:38;;;;;;;5.15;2.70;;;;;;;18.00;100.00;100722.94;5087372;28;20466;-69
2022/06/18 04:39:04;;;;;;;6.63;3.10;;;;;;;18.41;100.00;100780.97;5064095;28;20040;-69
2022/06/18 04:41:29;;;;;;;4.70;2.42;;;;;;;18.43;100.00;100760.41;5086167;28;20633;-68
2022/06/18 04:43:55;;;;;;;4.57;2.75;;;;;;;18.54;100.00;100769.31;5064244;28;20112;-69
2022/06/18 04:46:21;;;;;;;5.95;2.65;;;;;;;18.67;100.00;100782.50;5060538;28;20037;-69
2022/06/18 04:48:47;;;;;;;4.93;2.65;;;;;;;18.76;100.00;100771.13;5062064;28;20033;-69
2022/06/18 04:51:13;;;;;;;7.60;3.30;;;;;;;18.84;100.00;100766.91;5057401;28;20033;-69
2022/06/18 04:53:38;;;;;;;10.68;2.95;;;;;;;18.90;100.00;100770.91;5068900;28;20024;-69
2022/06/18 04:56:04;;;;;;;5.10;2.53;;;;;;;18.89;100.00;100755.91;5087075;28;20047;-69
2022/06/18 04:58:30;;;;;;;5.32;2.90;;;;;;;18.94;100.00;100755.53;5075693;28;20061;-69
2022/06/18 05:00:55;;;;;;;7.60;2.75;;;;;;;19.02;100.00;100764.63;5084371;28;20100;-69
2022/06/18 05:03:21;;;;;;;5.47;3.15;;;;;;;19.07;100.00;100759.75;5086745;28;20028;-69
2022/06/18 05:05:47;;;;;;;5.80;2.75;;;;;;;19.09;100.00;100749.00;5073551;28;20036;-69
2022/06/18 05:08:13;;;;;;;3.88;2.40;;;;;;;19.26;100.00;100749.31;5058904;28;20035;-69
2022/06/18 05:10:39;;;;;;;4.97;2.72;;;;;;;19.37;100.00;100757.28;5080875;28;20395;-69
2022/06/18 05:13:06;;;;;;;8.05;3.45;;;;;;;19.38;100.00;100752.81;5089190;28;20021;-69
2022/06/18 05:15:31;;;;;;;6.32;3.15;;;;;;;19.44;100.00;100746.16;5063812;28;20045;-69
2022/06/18 05:17:58;;;;;;;4.85;2.85;;;;;;;19.39;100.00;100742.03;5070765;28;20103;-69
2022/06/18 05:20:24;;;;;;;5.10;2.67;;;;;;;19.50;100.00;100745.69;5087669;28;20035;-69
2022/06/18 05:22:49;;;;;;;4.18;2.53;;;;;;;19.54;100.00;100744.44;5067714;28;20028;-69
2022/06/18 05:25:15;;;;;;;3.90;2.60;;;;;;;19.52;100.00;100725.06;5093950;28;20024;-69
2022/06/18 05:27:42;;;;;;;6.63;2.92;;;;;;;19.74;100.00;100748.97;5073342;28;20032;-69
2022/06/18 05:30:10;;;;;;;5.38;2.78;;;;;;;19.93;100.00;100749.16;5069354;28;20050;-69
2022/06/18 05:32:35;;;;;;;4.55;2.60;;;;;;;19.93;100.00;100733.16;5083492;28;20113;-68
2022/06/18 05:35:01;;;;;;;7.50;2.90;;;;;;;20.09;100.00;100749.56;5077643;28;20055;-69
2022/06/18 05:37:28;;;;;;;5.32;2.33;;;;;;;20.15;100.00;100742.84;5086285;28;20078;-68
2022/06/18 05:39:54;;;;;;;8.05;2.28;;;;;;;20.27;100.00;100749.88;5079739;28;20021;-68
2022/06/18 05:42:19;;;;;;;4.57;2.67;;;;;;;20.38;100.00;100739.97;5084103;28;20029;-68
2022/06/18 05:44:45;;;;;;;4.05;2.25;;;;;;;20.49;100.00;100730.19;5089461;28;20523;-69
2022/06/18 05:47:15;;;;;;;5.65;3.00;;;;;;;20.63;100.00;100741.38;5085595;28;20032;-69
2022/06/18 05:49:41;;;;;;;3.38;2.00;;;;;;;20.65;100.00;100735.91;5067854;28;20427;-69
2022/06/18 05:52:08;;;;;;;7.03;2.55;;;;;;;20.72;100.00;100735.22;5074817;28;20103;-69
2022/06/18 05:54:33;;;;;;;8.90;2.35;;;;;;;20.87;100.00;100741.06;5082105;28;20133;-69
2022/06/18 05:56:59;;;;;;;5.95;3.10;;;;;;;20.91;100.00;100742.50;5076292;28;20112;-68
2022/06/18 05:59:24;;;;;;;3.83;2.40;;;;;;;21.05;100.00;100744.81;5082571;28;20028;-69
2022/06/18 06:01:50;;;;;;;14.65;3.17;;;;;;;20.98;100.00;100716.09;5086387;28;20073;-69
2022/06/18 06:04:19;;;;;;;8.65;2.75;;;;;;;21.23;100.00;100748.53;5071235;28;20020;-69
2022/06/18 06:06:45;;;;;;;4.30;2.40;;;;;;;21.12;100.00;100703.22;5077135;28;20505;-68
2022/06/18 06:09:12;;;;;;;8.68;2.90;;;;;;;21.35;100.00;100736.75;5086743;28;20024;-69
2022/06/18 06:11:38;;;;;;;7.75;2.67;;;;;;;21.38;100.00;100733.81;5064470;28;20068;-69
2022/06/18 06:14:04;;;;;;;6.85;2.85;;;;;;;21.55;100.00;100734.13;5083210;28;20059;-69
2022/06/18 06:16:30;;;;;;;6.07;2.67;;;;;;;21.68;100.00;100743.56;5081097;28;20032;-69
2022/06/18 06:18:57;;;;;;;9.07;2.47;;;;;;;21.70;100.00;100736.22;5066200;28;20032;-69
2022/06/18 06:21:22;;;;;;;12.52;3.42;;;;;;;21.82;100.00;100742.31;5081697;28;20035;-69
2022/06/18 06:23:49;;;;;;;6.60;2.92;;;;;;;21.86;100.00;100741.88;5065638;28;20024;-68
2022/06/18 06:26:24;;;;;;;7.22;3.25;;;;;;;21.97;100.00;100742.78;5082872;28;20100;-68
2022/06/18 06:28:49;;;;;;;6.80;3.03;;;;;;;22.00;100.00;100737.13;5063661;28;20085;-68
2022/06/18 06:31:15;;;;;;;8.30;3.45;;;;;;;22.06;100.00;100741.91;5076811;28;20021;-68
2022/06/18 06:33:41;;;;;;;5.68;3.05;;;;;;;22.20;100.00;100749.50;5055633;28;20332;-68
2022/06/18 06:36:09;;;;;;;7.38;3.33;;;;;;;22.13;100.00;100726.97;5074016;28;20029;-68
2022/06/18 06:38:37;;;;;;;5.78;3.17;;;;;;;22.32;100.00;100746.53;5056176;28;20101;-68
2022/06/18 06:41:05;;;;;;;6.80;2.83;;;;;;;22.39;100.00;100755.69;5084292;28;20039;-69
2022/06/18 06:43:30;;;;;;;4.65;3.25;;;;;;;22.46;100.00;100747.06;5073395;28;20032;-69
2022/06/18 06:45:55;;;;;;;6.45;3.40;;;;;;;22.54;100.00;100748.03;5076297;28;20112;-68
2022/06/18 06:48:21;;;;;;;12.02;3.75;;;;;;;22.47;100.00;100716.63;5092651;28;20564;-68
2022/06/18 06:50:48;;;;;;;12.60;3.40;;;;;;;22.70;100.00;100752.81;5075937;28;20028;-68
2022/06/18 06:53:13;;;;;;;8.43;2.72;;;;;;;22.67;100.00;100737.03;5074669;28;20466;-69
2022/06/18 06:58:23;;;;;;;7.43;3.28;;;;;;;22.95;100.00;100736.06;5079995;28;20039;-68
2022/06/18 07:00:51;;;;;;;4.88;2.80;;;;;;;23.04;100.00;100737.88;5090713;28;20060;-68
2022/06/18 07:03:24;;;;;;;8.45;3.25;;;;;;;23.15;100.00;100736.84;5093914;28;20031;-68
2022/06/18 07:05:49;;;;;;;5.43;2.63;;;;;;;23.24;100.00;100750.19;5090289;28;20114;-68
2022/06/18 07:08:14;;;;;;;6.30;2.63;;;;;;;23.19;100.00;100722.09;5084295;28;20020;-68
2022/06/18 07:10:40;;;;;;;7.97;3.40;;;;;;;23.40;100.00;100736.97;5065184;28;20036;-67
2022/06/18 07:13:06;;;;;;;7.40;3.17;;;;;;;23.31;100.00;100713.72;5068912;28;20052;-67
2022/06/18 07:15:33;;;;;;;6.28;2.95;;;;;;;23.48;100.00;100732.69;5077548;28;20032;-67
2022/06/18 07:17:58;;;;;;;9.93;3.72;;;;;;;23.67;100.00;100740.59;5053017;28;20500;-68
2022/06/18 07:20:24;;;;;;;9.88;3.42;;;;;;;23.44;100.00;100683.03;5071390;28;20028;-68
2022/06/18 07:22:50;;;;;;;6.05;2.75;;;;;;;23.71;100.00;100713.31;5072653;28;20033;-68
2022/06/18 07:25:16;;;;;;;6.07;2.90;;;;;;;23.86;100.00;100729.75;5080746;28;20036;-68
2022/06/18 07:27:41;;;;;;;8.52;3.58;;;;;;;23.86;100.00;100719.00;5080248;28;20024;-68
2022/06/18 07:30:08;;;;;;;6.57;3.08;;;;;;;23.86;100.00;100708.28;5058472;28;20021;-68
2022/06/18 07:32:36;;;;;;;8.20;3.13;;;;;;;24.06;100.00;100739.31;5082897;28;20054;-68
2022/06/18 07:35:01;;;;;;;15.82;3.63;;;;;;;24.09;100.00;100733.63;5065783;28;20028;-68
2022/06/18 07:37:28;;;;;;;6.80;3.45;;;;;;;24.21;100.00;100735.09;5061448;28;20020;-68
2022/06/18 07:39:54;;;;;;;8.93;3.30;;;;;;;24.22;100.00;100723.34;5089972;28;20024;-68
2022/06/18 07:42:20;;;;;;;7.45;3.58;;;;;;;24.32;100.00;100739.38;5091340;28;20027;-68
2022/06/18 07:44:45;;;;;;;8.68;3.25;;;;;;;24.32;100.00;100718.72;5057116;28;20024;-67
2022/06/18 07:47:16;;;;;;;7.10;3.67;;;;;;;24.42;100.00;100724.00;5079804;28;20043;-70
2022/06/18 07:49:42;;;;;;;6.03;3.53;;;;;;;24.46;100.00;100716.47;5090552;28;20385;-69
2022/06/18 07:52:08;;;;;;;8.32;3.53;;;;;;;24.46;100.00;100714.63;5079321;28;20094;-70
2022/06/18 07:54:33;;;;;;;8.38;3.85;;;;;;;24.58;100.00;100723.25;5078934;28;20482;-70
2022/06/18 07:56:59;;;;;;;6.93;3.55;;;;;;;24.61;100.00;100718.38;5053844;28;20051;-70
2022/06/18 07:59:24;;;;;;;12.35;3.75;;;;;;;24.64;100.00;100701.13;5071497;28;20025;-71
2022/06/18 08:01:50;;;;;;;7.95;3.13;;;;;;;24.73;100.00;100705.53;5065745;28;20032;-70
2022/06/18 08:04:15;;;;;;;12.40;3.85;;;;;;;24.81;100.00;100713.63;5071107;28;20020;-70
2022/06/18 08:06:41;;;;;;;23.45;4.75;;;;;;;24.92;100.00;100710.69;5071861;28;20074;-71
2022/06/18 08:09:07;;;;;;;9.70;3.33;;;;;;;25.00;100.00;100710.72;5090786;28;20020;-71
2022/06/18 08:11:33;;;;;;;7.88;3.38;;;;;;;24.86;100.00;100668.31;5069658;28;20483;-70
2022/06/18 08:13:58;;;;;;;5.93;2.92;;;;;;;25.14;100.00;100693.13;5050588;28;20432;-71
2022/06/18 08:16:24;;;;;;;6.75;3.05;;;;;;;25.26;100.00;100698.03;5072358;28;20036;-71
2022/06/18 08:18:50;;;;;;;7.65;3.05;;;;;;;25.35;100.00;100693.50;5071804;28;20028;-70
2022/06/18 08:21:18;;;;;;;7.72;4.22;;;;;;;25.42;100.00;100702.59;5066414;28;20360;-71
2022/06/18 08:23:44;;;;;;;11.65;3.47;;;;;;;25.12;100.00;100642.19;5051387;28;20049;-70
2022/06/18 08:26:10;;;;;;;6.70;3.58;;;;;;;25.51;100.00;100684.69;5058792;28;20025;-70
2022/06/18 08:28:37;;;;;;;14.45;3.63;;;;;;;25.56;100.00;100691.22;5053040;28;20118;-70
2022/06/18 08:31:03;;;;;;;7.88;3.50;;;;;;;25.59;100.00;100684.66;5050943;28;20028;-71
2022/06/18 08:33:29;;;;;;;12.05;3.65;;;;;;;25.66;100.00;100688.38;5057466;28;20099;-70
2022/06/18 08:36:00;;;;;;;9.98;4.15;;;;;;;25.77;100.00;100688.06;5069614;28;20039;-70
2022/06/18 08:38:26;;;;;;;7.75;3.60;;;;;;;25.79;100.00;100681.50;5055940;28;20024;-70
2022/06/18 08:40:59;;;;;;;12.70;4.10;;;;;;;25.94;100.00;100684.38;5071466;28;20477;-70
2022/06/18 08:43:31;;;;;;;10.55;4.07;;;;;;;26.04;100.00;100682.34;5054120;28;20037;-71
2022/06/18 08:46:17;;;;;;;10.93;3.40;;;;;;;26.14;100.00;100683.00;5083943;28;20158;-71
2022/06/18 08:49:09;;;;;;;8.70;3.67;;;;;;;26.21;100.00;100675.94;5061300;28;20498;-70
2022/06/18 08:51:48;;;;;;;18.40;3.88;;;;;;;26.29;100.00;100681.34;5066598;28;20047;-71
2022/06/18 08:54:41;;;;;;;12.63;4.10;;;;;;;26.38;100.00;100674.91;5053275;28;20029;-71
2022/06/18 08:57:26;;;;;;;10.73;3.45;;;;;;;26.46;100.00;100674.06;5058353;28;20491;-71
2022/06/18 09:00:00;;;;;;;8.35;3.97;;;;;;;26.55;100.00;100664.06;5055253;28;20021;-71
2022/06/18 09:02:32;;;;;;;10.23;4.15;;;;;;;26.54;99.58;100657.00;5059529;28;20078;-72
2022/06/18 09:05:08;;;;;;;11.35;4.22;;;;;;;26.64;99.49;100644.16;5044291;28;20025;-71
2022/06/18 09:07:47;;;;;;;12.95;4.10;;;;;;;26.82;100.00;100656.44;5039665;28;20087;-70
2022/06/18 09:10:18;;;;;;;9.60;3.92;;;;;;;26.96;100.00;100657.53;5077114;28;20028;-71
2022/06/18 09:12:52;;;;;;;12.38;4.20;;;;;;;26.92;99.93;100637.31;5071211;28;20102;-71
2022/06/18 09:15:31;;;;;;;8.67;3.53;;;;;;;27.16;96.45;100657.94;5071875;28;20039;-70
2022/06/18 09:18:16;;;;;;;14.52;4.35;;;;;;;27.26;97.08;100662.09;5063575;28;20308;-70
2022/06/18 09:20:54;;;;;;;9.45;3.67;;;;;;;27.23;96.45;100638.16;5078299;28;20051;-71
2022/06/18 09:23:29;;;;;;;10.77;4.15;;;;;;;27.39;94.92;100648.00;5088210;28;20024;-71
2022/06/18 09:25:57;;;;;;;12.02;3.75;;;;;;;27.42;96.52;100648.47;5083556;28;20040;-70
2022/06/18 09:28:28;;;;;;;12.93;3.78;;;;;;;27.48;93.47;100643.44;5061783;28;20077;-71
2022/06/18 09:30:58;;;;;;;8.45;3.85;;;;;;;27.54;91.82;100656.22;5083724;28;20031;-71
2022/06/18 09:33:37;;;;;;;8.20;3.78;;;;;;;27.64;93.41;100657.66;5058575;28;20035;-71
2022/06/18 09:36:08;;;;;;;14.50;4.20;;;;;;;27.65;91.87;100642.25;5056157;28;20025;-71
2022/06/18 09:38:41;;;;;;;10.02;3.67;;;;;;;27.83;91.78;100642.78;5073817;28;20033;-71
2022/06/18 09:41:10;;;;;;;19.25;4.40;;;;;;;27.83;89.93;100634.69;5093976;28;20046;-71
2022/06/18 09:44:00;;;;;;;9.50;3.70;;;;;;;28.06;88.91;100643.63;5061348;28;20102;-71
2022/06/18 09:46:30;;;;;;;9.98;3.45;;;;;;;28.10;90.75;100639.53;5068280;28;20120;-71
2022/06/18 09:48:55;;;;;;;8.73;3.60;;;;;;;28.23;90.31;100647.84;5060370;28;20024;-71
2022/06/18 09:51:46;;;;;;;13.90;4.15;;;;;;;28.33;88.03;100647.56;5080912;28;20481;-70
2022/06/18 09:54:15;;;;;;;7.50;3.53;;;;;;;28.42;93.59;100647.28;5070082;28;20485;-71
2022/06/18 09:56:46;;;;;;;9.57;3.78;;;;;;;28.54;90.10;100650.38;5069551;28;20024;-71
2022/06/18 09:59:45;;;;;;;8.40;3.70;;;;;;;28.63;86.32;100645.69;5100021;28;20021;-70
2022/06/18 10:02:31;;;;;;;13.73;3.35;;;;;;;28.70;89.88;100638.53;5011711;28;20040;-71
2022/06/18 10:07:47;;;;;;;8.20;3.13;;;;;;;28.87;93.17;100626.47;5090145;28;20043;-70
2022/06/18 10:10:15;;;;;;;7.32;3.28;;;;;;;28.97;91.78;100635.13;5039898;28;20099;-70
2022/06/18 10:12:45;;;;;;;6.35;3.22;;;;;;;28.96;88.52;100628.06;5074427;28;20024;-71
2022/06/18 10:15:12;;;;;;;10.57;3.47;;;;;;;29.06;87.77;100634.00;5069019;28;20039;-70
2022/06/18 10:17:38;;;;;;;8.63;3.20;;;;;;;29.22;89.77;100635.63;5071016;28;20033;-71
2022/06/18 10:20:19;;;;;;;7.63;3.38;;;;;;;29.26;85.89;100634.25;5085503;28;20108;-70
2022/06/18 10:23:05;;;;;;;7.72;3.38;;;;;;;29.31;90.12;100638.06;5066197;28;20035;-71
2022/06/18 10:25:45;;;;;;;13.35;3.55;;;;;;;29.33;86.14;100622.47;5085433;28;20032;-71
2022/06/18 10:28:44;;;;;;;7.60;3.42;;;;;;;29.44;88.05;100623.81;5061018;28;20466;-70
2022/06/18 10:31:29;;;;;;;10.43;4.15;;;;;;;29.54;84.09;100626.22;5081414;28;20089;-70
2022/06/18 10:34:09;;;;;;;;;;;;;;;29.61;84.00;100627.09;5059604;28;20040;-70
2022/06/18 10:36:34;;;;;;;9.27;3.42;;;;;;;29.68;84.68;100628.00;5088164;28;19912;-70
2022/06/18 10:39:09;;;;;;;6.93;3.23;;;;;;;29.79;86.87;100624.75;5087145;28;20081;-71
2022/06/18 10:42:12;;;;;;;11.13;3.67;;;;;;;29.80;83.22;100604.75;5071046;28;20354;-68
2022/06/18 10:44:58;;;;;;;7.93;3.17;;;;;;;29.96;83.53;100617.22;5012498;28;20376;-70
2022/06/18 10:47:31;;;;;;;5.78;3.38;;;;;;;30.06;82.26;100598.72;4991039;28;20054;-70
2022/06/18 10:50:05;;;;;;;7.65;3.63;;;;;;;30.18;85.17;100603.38;5043714;28;20098;-71
2022/06/18 10:52:30;;;;;;;;;;;;;;;30.27;82.82;100613.06;5083357;28;20074;-69
2022/06/18 10:55:16;;;;;;;9.03;4.00;;;;;;;30.37;88.49;100608.13;5102590;28;19912;-71
2022/06/18 10:57:42;;;;;;;10.68;3.60;;;;;;;30.50;88.17;100601.94;5072980;28;20860;-71
2022/06/18 11:00:08;;;;;;;11.00;4.07;;;;;;;30.58;83.83;100596.38;5054650;28;20082;-71
2022/06/18 11:02:36;;;;;;;9.85;3.47;;;;;;;30.69;81.37;100590.34;5055742;28;20052;-71
2022/06/18 11:05:21;;;;;;;10.05;3.75;;;;;;;30.22;81.29;100498.06;5058290;28;20028;-72
2022/06/18 11:07:49;;;;;;;7.95;3.40;;;;;;;30.86;81.95;100593.53;5058014;28;20067;-71
2022/06/18 11:10:32;;;;;;;7.68;3.35;;;;;;;30.99;84.29;100574.63;5038654;28;20108;-71
2022/06/18 11:13:00;;;;;;;7.93;3.60;;;;;;;31.14;78.19;100572.53;5035407;28;20035;-71
2022/06/18 11:15:32;;;;;;;9.90;3.47;;;;;;;31.32;77.94;100575.50;5079760;28;20028;-72
2022/06/18 11:17:57;;;;;;;8.98;3.20;;;;;;;31.37;78.53;100562.13;5086077;28;20024;-72
2022/06/18 11:20:26;;;;;;;6.35;3.63;;;;;;;31.56;79.44;100573.25;5064833;28;20036;-71
2022/06/18 11:23:16;;;;;;;5.43;3.10;;;;;;;31.71;76.42;100573.88;5056282;28;20017;-72
2022/06/18 11:25:41;;;;;;;9.27;3.85;;;;;;;31.86;84.40;100569.91;5049776;28;20084;-71
2022/06/18 11:28:15;;;;;;;10.38;3.83;;;;;;;31.79;78.75;100527.44;5049987;28;20064;-71
2022/06/18 11:30:43;;;;;;;7.53;3.35;;;;;;;32.16;74.96;100562.13;5062321;28;20116;-71
2022/06/18 11:33:35;;;;;;;14.02;3.58;;;;;;;32.35;72.39;100560.38;5087366;28;20446;-72
2022/06/18 11:36:07;;;;;;;7.60;3.25;;;;;;;32.42;71.67;100534.81;5057568;28;20060;-71
2022/06/18 11:38:33;;;;;;;7.45;3.33;;;;;;;32.84;77.33;100543.47;5071812;28;20061;-71
2022/06/18 11:41:09;;;;;;;6.47;3.53;;;;;;;33.23;73.12;100542.38;5064539;28;20038;-70
2022/06/18 11:43:47;;;;;;;9.57;3.28;;;;;;;33.64;68.01;100533.69;5064447;28;20032;-72